createdAt,value
2023-01-09T00:01:55.832Z,8.11
2023-01-09T00:04:22.212Z,8.06
2023-01-09T00:06:48.561Z,7.98
2023-01-09T00:09:14.973Z,7.99
2023-01-09T00:11:41.294Z,7.89
2023-01-09T00:14:08.399Z,7.78
2023-01-09T00:16:36.254Z,7.75
2023-01-09T00:19:02.779Z,7.71
2023-01-09T00:21:29.133Z,7.69
2023-01-09T00:23:55.952Z,7.68
2023-01-09T00:26:22.460Z,7.67
2023-01-09T00:28:51.058Z,7.73
2023-01-09T00:31:18.602Z,7.85
2023-01-09T00:33:52.965Z,7.85
2023-01-09T00:36:19.405Z,7.80
2023-01-09T00:38:45.826Z,7.78
2023-01-09T00:41:17.070Z,7.80
2023-01-09T00:43:49.170Z,7.76
2023-01-09T00:46:18.167Z,8.12
2023-01-09T00:48:47.033Z,8.03
2023-01-09T00:51:14.009Z,8.05
2023-01-09T00:53:42.891Z,8.19
2023-01-09T00:56:14.917Z,8.31
2023-01-09T00:58:41.367Z,8.68
2023-01-09T01:01:07.982Z,8.75
2023-01-09T01:03:34.492Z,8.64
2023-01-09T01:06:00.855Z,8.60
2023-01-09T01:08:27.646Z,8.69
2023-01-09T01:10:53.996Z,8.79
2023-01-09T01:13:20.467Z,9.10
2023-01-09T01:15:47.156Z,8.74
2023-01-09T01:18:14.979Z,8.82
2023-01-09T01:20:43.441Z,8.67
2023-01-09T01:23:09.900Z,8.55
2023-01-09T01:25:38.574Z,8.44
2023-01-09T01:28:06.187Z,8.88
2023-01-09T01:30:33.578Z,8.82
2023-01-09T01:33:00.863Z,8.56
2023-01-09T01:35:27.155Z,8.58
2023-01-09T01:37:53.700Z,8.78
2023-01-09T01:40:20.359Z,8.35
2023-01-09T01:42:51.872Z,8.35
2023-01-09T01:45:24.331Z,8.49
2023-01-09T01:47:59.811Z,8.29
2023-01-09T01:50:35.290Z,8.20
2023-01-09T01:53:21.676Z,8.02
2023-01-09T01:56:06.321Z,8.39
2023-01-09T01:58:36.368Z,8.07
2023-01-09T02:01:03.172Z,7.91
2023-01-09T02:03:30.498Z,8.31
2023-01-09T02:05:57.361Z,8.19
2023-01-09T02:08:23.951Z,8.06
2023-01-09T02:10:51.783Z,7.92
2023-01-09T02:13:19.726Z,8.01
2023-01-09T02:16:10.227Z,7.90
2023-01-09T02:18:54.764Z,7.83
2023-01-09T02:21:58.593Z,7.81
2023-01-09T02:24:47.406Z,7.80
2023-01-09T02:27:19.914Z,8.07
2023-01-09T02:29:49.348Z,8.22
2023-01-09T02:32:26.149Z,8.23
2023-01-09T02:35:10.549Z,8.01
2023-01-09T02:38:14.927Z,8.21
2023-01-09T02:40:52.506Z,7.92
2023-01-09T02:43:19.856Z,7.79
2023-01-09T02:45:46.252Z,7.79
2023-01-09T02:48:12.736Z,7.83
2023-01-09T02:50:51.239Z,7.76
2023-01-09T02:53:20.335Z,7.79
2023-01-09T02:55:58.916Z,7.74
2023-01-09T02:59:06.021Z,7.79
2023-01-09T03:01:54.488Z,7.73
2023-01-09T03:04:42.119Z,8.20
2023-01-09T03:07:19.891Z,7.88
2023-01-09T03:09:50.992Z,7.80
2023-01-09T03:12:21.604Z,7.84
2023-01-09T03:14:53.433Z,7.74
2023-01-09T03:17:27.940Z,7.75
2023-01-09T03:19:56.771Z,7.78
2023-01-09T03:22:23.133Z,7.78
2023-01-09T03:24:49.539Z,7.75
2023-01-09T03:27:16.032Z,7.80
2023-01-09T03:29:42.440Z,7.85
2023-01-09T03:32:09.386Z,7.81
2023-01-09T03:34:35.695Z,8.35
2023-01-09T03:37:02.012Z,8.58
2023-01-09T03:39:28.488Z,8.14
2023-01-09T03:41:54.886Z,8.16
2023-01-09T03:44:21.195Z,8.08
2023-01-09T03:46:47.690Z,8.02
2023-01-09T03:49:14.306Z,8.10
2023-01-09T03:51:40.709Z,7.93
2023-01-09T03:54:07.023Z,7.80
2023-01-09T03:56:33.444Z,8.15
2023-01-09T03:58:59.837Z,8.09
2023-01-09T04:01:26.422Z,7.98
2023-01-09T04:03:52.809Z,7.90
2023-01-09T04:06:19.250Z,7.92
2023-01-09T04:08:45.910Z,7.89
2023-01-09T04:11:12.310Z,8.11
2023-01-09T04:13:38.653Z,8.23
2023-01-09T04:16:06.201Z,8.14
2023-01-09T04:18:32.635Z,8.13
2023-01-09T04:20:59.111Z,8.24
2023-01-09T04:23:25.592Z,8.20
2023-01-09T04:25:52.098Z,8.53
2023-01-09T04:28:18.471Z,8.60
2023-01-09T04:30:45.154Z,8.36
2023-01-09T04:33:11.561Z,8.54
2023-01-09T04:35:38.134Z,8.52
2023-01-09T04:38:04.564Z,8.80
2023-01-09T04:40:30.993Z,8.65
2023-01-09T04:42:57.354Z,8.42
2023-01-09T04:45:23.734Z,8.31
2023-01-09T04:47:50.174Z,8.27
2023-01-09T04:50:16.670Z,8.58
2023-01-09T04:52:43.192Z,8.67
2023-01-09T04:55:09.903Z,8.65
2023-01-09T04:57:37.084Z,8.64
2023-01-09T05:00:05.408Z,9.08
2023-01-09T05:02:32.095Z,9.08
2023-01-09T05:04:58.425Z,9.23
2023-01-09T05:07:24.790Z,9.08
2023-01-09T05:09:51.205Z,8.74
2023-01-09T05:12:17.620Z,8.59
2023-01-09T05:14:44.033Z,8.25
2023-01-09T05:17:10.688Z,8.09
2023-01-09T05:19:37.160Z,7.94
2023-01-09T05:22:03.505Z,8.03
2023-01-09T05:24:30.041Z,7.97
2023-01-09T05:26:56.433Z,7.96
2023-01-09T05:29:22.893Z,7.97
2023-01-09T05:31:49.385Z,7.95
2023-01-09T05:34:15.864Z,8.17
2023-01-09T05:36:42.352Z,8.23
2023-01-09T05:39:08.826Z,8.22
2023-01-09T05:41:35.164Z,8.15
2023-01-09T05:44:01.561Z,8.12
2023-01-09T05:46:28.140Z,8.20
2023-01-09T05:48:54.547Z,8.35
2023-01-09T05:51:20.951Z,8.43
2023-01-09T05:53:47.513Z,8.63
2023-01-09T05:56:14.085Z,8.55
2023-01-09T05:58:40.649Z,8.55
2023-01-09T06:01:07.516Z,8.65
2023-01-09T06:03:34.204Z,8.54
2023-01-09T06:06:00.644Z,8.42
2023-01-09T06:08:27.106Z,8.81
2023-01-09T06:10:53.404Z,8.48
2023-01-09T06:13:19.799Z,8.37
2023-01-09T06:15:48.170Z,8.42
2023-01-09T06:18:14.909Z,8.25
2023-01-09T06:20:41.325Z,8.33
2023-01-09T06:23:08.089Z,8.47
2023-01-09T06:25:34.476Z,8.39
2023-01-09T06:28:00.910Z,8.28
2023-01-09T06:30:27.286Z,8.50
2023-01-09T06:32:53.795Z,8.40
2023-01-09T06:35:20.189Z,8.31
2023-01-09T06:37:48.113Z,8.29
2023-01-09T06:40:14.819Z,8.32
2023-01-09T06:42:45.406Z,8.49
2023-01-09T06:45:13.250Z,8.25
2023-01-09T06:47:40.201Z,8.16
2023-01-09T06:50:08.324Z,8.43
2023-01-09T06:52:35.775Z,8.32
2023-01-09T06:55:02.216Z,8.20
2023-01-09T06:57:28.631Z,8.21
2023-01-09T06:59:55.046Z,8.01
2023-01-09T07:02:22.421Z,8.19
2023-01-09T07:04:49.164Z,8.02
2023-01-09T07:07:15.619Z,7.98
2023-01-09T07:09:41.963Z,7.92
2023-01-09T07:12:08.543Z,7.94
2023-01-09T07:14:34.961Z,7.88
2023-01-09T07:17:01.307Z,7.68
2023-01-09T07:19:27.828Z,8.01
2023-01-09T07:21:54.413Z,7.93
2023-01-09T07:24:20.954Z,7.72
2023-01-09T07:26:47.411Z,7.73
2023-01-09T07:29:13.820Z,7.68
2023-01-09T07:31:40.274Z,7.57
2023-01-09T07:34:06.766Z,7.74
2023-01-09T07:36:33.142Z,7.63
2023-01-09T07:38:59.661Z,7.76
2023-01-09T07:41:26.213Z,7.67
2023-01-09T07:43:52.743Z,7.63
2023-01-09T07:46:19.160Z,7.77
2023-01-09T07:48:45.539Z,7.60
2023-01-09T07:51:12.076Z,7.59
2023-01-09T07:53:38.373Z,8.15
2023-01-09T07:56:05.104Z,7.77
2023-01-09T07:58:31.646Z,7.50
2023-01-09T08:00:58.057Z,7.59
2023-01-09T08:03:24.923Z,8.14
2023-01-09T08:05:51.644Z,8.11
2023-01-09T08:08:18.166Z,7.94
2023-01-09T08:10:44.519Z,8.32
2023-01-09T08:13:11.129Z,8.23
2023-01-09T08:15:37.758Z,8.26
2023-01-09T08:18:04.481Z,8.43
2023-01-09T08:20:30.873Z,8.57
2023-01-09T08:22:57.267Z,8.37
2023-01-09T08:25:24.049Z,8.05
2023-01-09T08:27:50.760Z,7.92
2023-01-09T08:30:18.034Z,7.98
2023-01-09T08:32:48.738Z,8.41
2023-01-09T08:35:15.160Z,8.74
2023-01-09T08:37:45.194Z,8.75
2023-01-09T08:40:13.307Z,8.53
2023-01-09T08:42:40.096Z,8.78
2023-01-09T08:45:07.765Z,8.40
2023-01-09T08:47:34.225Z,8.18
2023-01-09T08:50:01.097Z,8.81
2023-01-09T08:52:27.476Z,9.25
2023-01-09T08:54:53.791Z,8.65
2023-01-09T08:57:20.264Z,9.15
2023-01-09T08:59:46.709Z,8.91
2023-01-09T09:02:13.150Z,8.94
2023-01-09T09:04:39.571Z,9.04
2023-01-09T09:07:06.008Z,8.95
2023-01-09T09:09:32.426Z,8.65
2023-01-09T09:11:58.799Z,8.73
2023-01-09T09:14:25.727Z,9.00
2023-01-09T09:16:52.789Z,9.08
2023-01-09T09:19:19.639Z,9.06
2023-01-09T09:21:45.968Z,9.23
2023-01-09T09:24:12.371Z,9.31
2023-01-09T09:26:38.742Z,9.41
2023-01-09T09:29:05.268Z,9.38
2023-01-09T09:31:31.873Z,9.28
2023-01-09T09:33:58.297Z,9.52
2023-01-09T09:36:24.887Z,9.33
2023-01-09T09:38:52.437Z,9.37
2023-01-09T09:41:37.571Z,9.52
2023-01-09T09:44:29.672Z,9.53
2023-01-09T09:47:11.901Z,9.49
2023-01-09T09:49:57.164Z,10.03
2023-01-09T09:52:32.405Z,10.10
2023-01-09T09:55:05.540Z,10.14
2023-01-09T09:57:37.293Z,10.01
2023-01-09T10:00:06.428Z,9.79
2023-01-09T10:02:45.492Z,9.92
2023-01-09T10:05:18.548Z,9.82
2023-01-09T10:07:50.055Z,9.99
2023-01-09T10:10:29.670Z,9.67
2023-01-09T10:12:58.995Z,9.65
2023-01-09T10:15:36.547Z,9.60
2023-01-09T10:18:20.824Z,9.57
2023-01-09T10:20:59.954Z,9.20
2023-01-09T10:23:43.009Z,9.45
2023-01-09T10:26:29.702Z,9.40
2023-01-09T10:29:11.508Z,9.24
2023-01-09T10:32:07.231Z,9.13
2023-01-09T10:34:55.473Z,9.09
2023-01-09T10:37:28.319Z,9.07
2023-01-09T10:40:01.810Z,9.20
2023-01-09T10:42:39.707Z,9.12
2023-01-09T10:45:17.495Z,9.05
2023-01-09T10:47:44.921Z,9.29
2023-01-09T10:50:24.039Z,9.29
2023-01-09T10:52:53.464Z,9.21
2023-01-09T10:55:33.529Z,9.33
2023-01-09T10:58:03.690Z,9.08
2023-01-09T11:00:30.075Z,9.35
2023-01-09T11:02:58.974Z,9.35
2023-01-09T11:05:29.197Z,9.50
2023-01-09T11:08:09.952Z,9.49
2023-01-09T11:10:52.050Z,9.21
2023-01-09T11:13:26.156Z,9.07
2023-01-09T11:16:03.174Z,9.42
2023-01-09T11:18:29.872Z,9.54
2023-01-09T11:20:56.310Z,9.78
2023-01-09T11:23:31.711Z,9.27
2023-01-09T11:25:59.810Z,9.45
2023-01-09T11:28:26.534Z,9.69
2023-01-09T11:31:01.548Z,9.64
2023-01-09T11:33:39.437Z,9.66
2023-01-09T11:36:15.825Z,9.40
2023-01-09T11:38:50.046Z,9.33
2023-01-09T11:41:22.488Z,9.66
2023-01-09T11:43:51.494Z,9.75
2023-01-09T11:46:39.280Z,9.81
2023-01-09T11:49:21.642Z,9.70
2023-01-09T11:52:17.369Z,9.63
2023-01-09T11:54:57.598Z,9.96
2023-01-09T11:57:25.068Z,9.42
2023-01-09T11:59:51.641Z,9.47
2023-01-09T12:02:38.804Z,9.93
2023-01-09T12:05:28.523Z,9.85
2023-01-09T12:08:06.593Z,9.87
2023-01-09T12:10:55.057Z,9.71
2023-01-09T12:13:51.380Z,9.56
2023-01-09T12:16:29.637Z,9.77
2023-01-09T12:19:17.955Z,10.02
2023-01-09T12:22:00.836Z,10.44
2023-01-09T12:24:43.837Z,10.37
2023-01-09T12:27:48.681Z,10.37
2023-01-09T12:30:21.592Z,10.32
2023-01-09T12:32:56.922Z,9.91
2023-01-09T12:36:01.158Z,10.03
2023-01-09T12:38:35.839Z,9.66
2023-01-09T12:41:13.220Z,9.76
2023-01-09T12:44:05.501Z,10.05
2023-01-09T12:46:47.518Z,9.81
2023-01-09T12:49:27.941Z,9.95
2023-01-09T12:52:03.628Z,9.48
2023-01-09T12:54:48.322Z,9.65
2023-01-09T12:57:37.617Z,9.61
2023-01-09T13:00:15.984Z,9.52
2023-01-09T13:02:46.593Z,9.48
2023-01-09T13:05:23.751Z,9.95
2023-01-09T13:08:13.197Z,9.81
2023-01-09T13:10:43.083Z,9.65
2023-01-09T13:13:20.818Z,9.57
2023-01-09T13:16:04.406Z,9.42
2023-01-09T13:18:45.040Z,9.52
2023-01-09T13:21:13.768Z,9.49
2023-01-09T13:23:52.225Z,9.56
2023-01-09T13:26:26.809Z,9.47
2023-01-09T13:28:59.189Z,9.62
2023-01-09T13:31:58.004Z,9.64
2023-01-09T13:34:28.016Z,9.56
2023-01-09T13:36:56.461Z,9.46
2023-01-09T13:39:26.445Z,9.37
2023-01-09T13:41:58.123Z,9.42
2023-01-09T13:44:26.942Z,9.23
2023-01-09T13:46:57.092Z,9.75
2023-01-09T13:49:32.965Z,9.61
2023-01-09T13:52:01.685Z,9.33
2023-01-09T13:54:46.749Z,9.33
2023-01-09T13:57:19.294Z,9.47
2023-01-09T13:59:49.550Z,9.49
2023-01-09T14:02:34.510Z,9.78
2023-01-09T14:05:03.694Z,9.20
2023-01-09T14:07:35.116Z,9.27
2023-01-09T14:10:06.007Z,9.17
2023-01-09T14:12:39.859Z,8.97
2023-01-09T14:15:18.890Z,8.88
2023-01-09T14:17:45.450Z,8.97
2023-01-09T14:20:27.839Z,8.89
2023-01-09T14:23:18.140Z,9.07
2023-01-09T14:25:45.021Z,9.06
2023-01-09T14:28:25.636Z,9.27
2023-01-09T14:30:54.998Z,9.45
2023-01-09T14:33:21.482Z,9.43
2023-01-09T14:36:15.963Z,9.53
2023-01-09T14:38:53.199Z,9.50
2023-01-09T14:41:32.005Z,9.49
2023-01-09T14:44:06.494Z,9.63
2023-01-09T14:46:38.414Z,9.71
2023-01-09T14:49:39.317Z,9.27
2023-01-09T14:52:20.305Z,9.40
2023-01-09T14:54:49.081Z,9.05
2023-01-09T14:57:30.816Z,9.17
2023-01-09T15:00:15.705Z,9.89
2023-01-09T15:02:44.048Z,9.53
2023-01-09T15:05:14.168Z,9.16
2023-01-09T15:07:49.419Z,8.97
2023-01-09T15:10:21.340Z,9.20
2023-01-09T15:12:50.398Z,9.49
2023-01-09T15:15:18.368Z,9.34
2023-01-09T15:17:50.281Z,9.42
2023-01-09T15:20:23.002Z,9.21
2023-01-09T15:22:51.186Z,8.97
2023-01-09T15:25:40.427Z,8.89
2023-01-09T15:28:33.165Z,8.82
2023-01-09T15:31:12.492Z,8.94
2023-01-09T15:33:40.592Z,9.03
2023-01-09T15:36:28.132Z,8.95
2023-01-09T15:38:54.952Z,9.24
2023-01-09T15:41:27.265Z,8.87
2023-01-09T15:43:53.968Z,8.72
2023-01-09T15:46:20.473Z,9.01
2023-01-09T15:48:53.980Z,9.18
2023-01-09T15:51:20.914Z,9.05
2023-01-09T15:53:48.624Z,9.17
2023-01-09T15:56:26.538Z,9.31
2023-01-09T15:58:54.662Z,9.24
2023-01-09T16:01:30.113Z,9.14
2023-01-09T16:04:17.294Z,8.82
2023-01-09T16:06:47.039Z,8.67
2023-01-09T16:09:29.752Z,9.17
2023-01-09T16:12:04.129Z,9.23
2023-01-09T16:14:33.190Z,9.31
2023-01-09T16:17:03.724Z,9.09
2023-01-09T16:19:49.693Z,9.43
2023-01-09T16:22:26.491Z,8.91
2023-01-09T16:24:54.536Z,8.95
2023-01-09T16:27:34.006Z,8.63
2023-01-09T16:30:26.525Z,8.40
2023-01-09T16:32:52.844Z,8.37
2023-01-09T16:35:28.726Z,8.39
2023-01-09T16:37:55.170Z,7.91
2023-01-09T16:40:25.940Z,7.74
2023-01-09T16:42:58.268Z,7.63
2023-01-09T16:45:26.595Z,7.65
2023-01-09T16:47:53.197Z,7.44
2023-01-09T16:50:19.555Z,7.41
2023-01-09T16:52:47.332Z,7.25
2023-01-09T16:55:14.320Z,7.35
2023-01-09T16:57:40.762Z,7.20
2023-01-09T17:00:13.747Z,7.06
2023-01-09T17:02:40.466Z,6.99
2023-01-09T17:05:07.232Z,7.38
2023-01-09T17:07:34.072Z,7.07
2023-01-09T17:10:00.742Z,7.29
2023-01-09T17:12:27.073Z,7.30
2023-01-09T17:14:53.727Z,7.27
2023-01-09T17:17:20.432Z,6.97
2023-01-09T17:19:47.060Z,6.97
2023-01-09T17:22:14.077Z,6.87
2023-01-09T17:24:40.566Z,6.73
2023-01-09T17:27:09.720Z,6.65
2023-01-09T17:29:36.747Z,6.64
2023-01-09T17:32:03.552Z,6.56
2023-01-09T17:34:30.170Z,6.40
2023-01-09T17:36:57.112Z,6.22
2023-01-09T17:39:23.508Z,6.26
2023-01-09T17:41:49.867Z,6.12
2023-01-09T17:44:16.257Z,6.10
2023-01-09T17:46:44.741Z,6.11
2023-01-09T17:49:16.975Z,6.32
2023-01-09T17:51:43.493Z,6.36
2023-01-09T17:54:10.548Z,6.40
2023-01-09T17:56:39.230Z,6.50
2023-01-09T17:59:05.862Z,6.32
2023-01-09T18:01:32.268Z,6.26
2023-01-09T18:03:58.680Z,6.20
2023-01-09T18:06:25.193Z,6.59
2023-01-09T18:08:51.513Z,6.34
2023-01-09T18:11:20.413Z,6.22
2023-01-09T18:13:48.201Z,6.07
2023-01-09T18:16:17.169Z,6.23
2023-01-09T18:18:43.978Z,6.06
2023-01-09T18:21:14.556Z,6.02
2023-01-09T18:23:41.274Z,5.81
2023-01-09T18:26:08.629Z,5.76
2023-01-09T18:28:39.030Z,5.70
2023-01-09T18:31:06.455Z,5.67
2023-01-09T18:33:33.141Z,5.65
2023-01-09T18:36:07.398Z,5.71
2023-01-09T18:38:33.889Z,5.60
2023-01-09T18:41:01.916Z,5.53
2023-01-09T18:43:28.967Z,5.51
2023-01-09T18:45:55.535Z,5.48
2023-01-09T18:48:22.134Z,5.38
2023-01-09T18:50:48.569Z,5.33
2023-01-09T18:53:15.228Z,5.28
2023-01-09T18:55:41.624Z,5.21
2023-01-09T18:58:08.063Z,5.14
2023-01-09T19:00:34.651Z,5.15
2023-01-09T19:03:00.969Z,5.07
2023-01-09T19:05:27.356Z,5.17
2023-01-09T19:07:53.712Z,5.37
2023-01-09T19:10:20.233Z,5.37
2023-01-09T19:12:46.852Z,5.92
2023-01-09T19:15:13.209Z,5.93
2023-01-09T19:17:40.224Z,5.95
2023-01-09T19:20:07.655Z,5.89
2023-01-09T19:22:34.125Z,6.07
2023-01-09T19:25:00.532Z,6.04
2023-01-09T19:27:29.347Z,6.16
2023-01-09T19:29:56.016Z,5.91
2023-01-09T19:32:22.701Z,5.75
2023-01-09T19:34:50.064Z,5.70
2023-01-09T19:37:16.421Z,5.71
2023-01-09T19:39:42.813Z,5.62
2023-01-09T19:42:09.430Z,5.60
2023-01-09T19:44:35.745Z,5.59
2023-01-09T19:47:02.448Z,5.61
2023-01-09T19:49:28.894Z,5.64
2023-01-09T19:51:55.435Z,5.73
2023-01-09T19:54:21.824Z,6.05
2023-01-09T19:56:48.180Z,6.23
2023-01-09T19:59:14.577Z,6.24
2023-01-09T20:01:41.826Z,6.04
2023-01-09T20:04:10.652Z,5.86
2023-01-09T20:06:40.326Z,5.83
2023-01-09T20:09:07.036Z,5.93
2023-01-09T20:11:34.380Z,5.91
2023-01-09T20:14:01.160Z,5.86
2023-01-09T20:16:29.982Z,5.92
2023-01-09T20:18:58.129Z,6.04
2023-01-09T20:21:26.281Z,6.36
2023-01-09T20:23:55.350Z,6.48
2023-01-09T20:26:22.746Z,6.34
2023-01-09T20:28:49.278Z,6.35
2023-01-09T20:31:18.429Z,6.22
2023-01-09T20:33:48.983Z,6.35
2023-01-09T20:36:15.642Z,6.40
2023-01-09T20:38:43.881Z,6.40
2023-01-09T20:41:15.394Z,6.33
2023-01-09T20:43:41.941Z,6.49
2023-01-09T20:46:08.661Z,6.37
2023-01-09T20:48:35.020Z,6.55
2023-01-09T20:51:06.688Z,6.43
2023-01-09T20:53:33.465Z,6.46
2023-01-09T20:56:07.425Z,6.32
2023-01-09T20:58:34.303Z,6.31
2023-01-09T21:01:09.025Z,6.28
2023-01-09T21:03:35.531Z,6.60
2023-01-09T21:06:06.663Z,6.56
2023-01-09T21:08:33.888Z,6.48
2023-01-09T21:11:00.525Z,6.71
2023-01-09T21:13:27.657Z,6.66
2023-01-09T21:15:54.308Z,6.56
2023-01-09T21:18:20.671Z,6.32
2023-01-09T21:20:47.096Z,6.44
2023-01-09T21:23:13.393Z,6.27
2023-01-09T21:25:40.802Z,6.27
2023-01-09T21:28:07.518Z,6.12
2023-01-09T21:30:34.354Z,6.07
2023-01-09T21:33:00.859Z,6.15
2023-01-09T21:35:27.409Z,6.25
2023-01-09T21:37:53.798Z,6.03
2023-01-09T21:40:20.179Z,6.04
2023-01-09T21:42:46.587Z,6.03
2023-01-09T21:45:14.767Z,6.03
2023-01-09T21:47:41.197Z,6.04
2023-01-09T21:50:08.236Z,6.10
2023-01-09T21:52:36.138Z,6.06
2023-01-09T21:55:02.548Z,6.21
2023-01-09T21:57:29.267Z,6.23
2023-01-09T21:59:55.653Z,6.30
2023-01-09T22:02:22.023Z,6.26
2023-01-09T22:04:48.563Z,6.31
2023-01-09T22:07:15.827Z,6.28
2023-01-09T22:09:42.238Z,6.28
2023-01-09T22:12:08.734Z,6.53
2023-01-09T22:14:35.212Z,6.51
2023-01-09T22:17:01.617Z,6.46
2023-01-09T22:19:28.298Z,6.52
2023-01-09T22:21:54.715Z,6.39
2023-01-09T22:24:21.153Z,6.46
2023-01-09T22:26:47.953Z,6.44
2023-01-09T22:29:14.830Z,6.39
2023-01-09T22:31:41.376Z,6.32
2023-01-09T22:34:10.428Z,6.51
2023-01-09T22:36:36.919Z,6.42
2023-01-09T22:39:03.757Z,6.46
2023-01-09T22:41:30.711Z,6.52
2023-01-09T22:43:57.460Z,6.41
2023-01-09T22:46:24.455Z,6.56
2023-01-09T22:48:51.160Z,6.70
2023-01-09T22:51:20.393Z,6.76
2023-01-09T22:53:47.349Z,6.81
2023-01-09T22:56:16.286Z,6.88
2023-01-09T22:58:42.958Z,6.83
2023-01-09T23:01:12.844Z,6.67
2023-01-09T23:03:40.049Z,6.77
2023-01-09T23:06:11.082Z,6.95
2023-01-09T23:08:37.771Z,6.97
2023-01-09T23:11:08.163Z,6.83
2023-01-09T23:13:34.508Z,7.09
2023-01-09T23:16:00.899Z,6.97
2023-01-09T23:18:27.350Z,6.92
2023-01-09T23:20:57.323Z,6.85
2023-01-09T23:23:24.772Z,6.69
2023-01-09T23:25:57.377Z,6.84
2023-01-09T23:28:25.474Z,6.70
2023-01-09T23:30:52.260Z,6.73
2023-01-09T23:33:19.732Z,6.81
2023-01-09T23:35:46.048Z,6.72
2023-01-09T23:38:12.631Z,6.66
2023-01-09T23:40:40.562Z,6.57
2023-01-09T23:43:07.659Z,6.51
2023-01-09T23:45:34.030Z,6.46
2023-01-09T23:48:00.456Z,6.53
2023-01-09T23:50:26.911Z,6.42
2023-01-09T23:52:53.264Z,6.27
2023-01-09T23:55:19.587Z,6.33
2023-01-09T23:57:46.009Z,6.38
